sensor_id;sensor_type;location;lat;lon;timestamp;P1;durP1;ratioP1;P2;durP2;ratioP2
64957;SDS011;51486;50.232;19.208;2023-03-01T00:00:15;103.00;;;36.20;;
64957;SDS011;51486;50.232;19.208;2023-03-01T00:03:01;103.07;;;39.37;;
64957;SDS011;51486;50.232;19.208;2023-03-01T00:05:47;103.70;;;37.70;;
64957;SDS011;51486;50.232;19.208;2023-03-01T00:08:33;114.03;;;39.20;;
64957;SDS011;51486;50.232;19.208;2023-03-01T00:11:23;114.50;;;38.27;;
64957;SDS011;51486;50.232;19.208;2023-03-01T00:14:14;99.97;;;36.20;;
64957;SDS011;51486;50.232;19.208;2023-03-01T00:17:02;99.33;;;36.10;;
64957;SDS011;51486;50.232;19.208;2023-03-01T00:19:48;113.87;;;38.23;;
64957;SDS011;51486;50.232;19.208;2023-03-01T00:22:34;104.83;;;37.63;;
64957;SDS011;51486;50.232;19.208;2023-03-01T00:25:19;91.47;;;36.10;;
64957;SDS011;51486;50.232;19.208;2023-03-01T00:28:05;98.33;;;36.53;;
64957;SDS011;51486;50.232;19.208;2023-03-01T00:30:51;111.10;;;38.97;;
64957;SDS011;51486;50.232;19.208;2023-03-01T00:33:36;106.03;;;39.20;;
64957;SDS011;51486;50.232;19.208;2023-03-01T00:36:23;95.73;;;41.23;;
64957;SDS011;51486;50.232;19.208;2023-03-01T00:39:11;112.03;;;42.33;;
64957;SDS011;51486;50.232;19.208;2023-03-01T00:41:59;107.13;;;39.30;;
64957;SDS011;51486;50.232;19.208;2023-03-01T00:44:45;117.00;;;42.80;;
64957;SDS011;51486;50.232;19.208;2023-03-01T00:47:30;102.10;;;39.50;;
64957;SDS011;51486;50.232;19.208;2023-03-01T00:50:16;92.43;;;36.50;;
64957;SDS011;51486;50.232;19.208;2023-03-01T00:53:02;93.77;;;36.97;;
64957;SDS011;51486;50.232;19.208;2023-03-01T00:55:50;104.00;;;36.50;;
64957;SDS011;51486;50.232;19.208;2023-03-01T00:58:35;98.33;;;35.43;;
64957;SDS011;51486;50.232;19.208;2023-03-01T01:01:22;98.97;;;33.47;;
64957;SDS011;51486;50.232;19.208;2023-03-01T01:04:12;94.37;;;32.33;;
64957;SDS011;51486;50.232;19.208;2023-03-01T01:06:58;101.80;;;34.37;;
64957;SDS011;51486;50.232;19.208;2023-03-01T01:09:44;85.30;;;31.70;;
64957;SDS011;51486;50.232;19.208;2023-03-01T01:12:30;85.10;;;32.37;;
64957;SDS011;51486;50.232;19.208;2023-03-01T01:15:16;90.00;;;32.37;;
64957;SDS011;51486;50.232;19.208;2023-03-01T01:18:02;95.27;;;31.30;;
64957;SDS011;51486;50.232;19.208;2023-03-01T01:20:48;88.87;;;34.10;;
64957;SDS011;51486;50.232;19.208;2023-03-01T01:23:34;88.90;;;31.83;;
64957;SDS011;51486;50.232;19.208;2023-03-01T01:26:29;104.00;;;32.57;;
64957;SDS011;51486;50.232;19.208;2023-03-01T01:29:16;87.77;;;32.73;;
64957;SDS011;51486;50.232;19.208;2023-03-01T01:32:02;98.70;;;34.63;;
64957;SDS011;51486;50.232;19.208;2023-03-01T01:34:48;111.53;;;35.80;;
64957;SDS011;51486;50.232;19.208;2023-03-01T01:37:34;102.60;;;38.80;;
64957;SDS011;51486;50.232;19.208;2023-03-01T01:40:20;94.77;;;35.50;;
64957;SDS011;51486;50.232;19.208;2023-03-01T01:43:08;101.90;;;35.33;;
64957;SDS011;51486;50.232;19.208;2023-03-01T01:46:05;99.83;;;36.97;;
64957;SDS011;51486;50.232;19.208;2023-03-01T01:49:17;114.17;;;38.50;;
64957;SDS011;51486;50.232;19.208;2023-03-01T01:57:58;111.17;;;38.17;;
64957;SDS011;51486;50.232;19.208;2023-03-01T02:00:47;98.03;;;36.80;;
64957;SDS011;51486;50.232;19.208;2023-03-01T02:03:34;111.50;;;37.07;;
64957;SDS011;51486;50.232;19.208;2023-03-01T02:06:32;104.50;;;37.80;;
64957;SDS011;51486;50.232;19.208;2023-03-01T02:09:21;111.47;;;37.37;;
64957;SDS011;51486;50.232;19.208;2023-03-01T02:12:08;105.33;;;40.07;;
64957;SDS011;51486;50.232;19.208;2023-03-01T02:14:54;119.97;;;38.73;;
64957;SDS011;51486;50.232;19.208;2023-03-01T02:17:39;113.70;;;36.63;;
64957;SDS011;51486;50.232;19.208;2023-03-01T02:20:37;98.73;;;36.77;;
64957;SDS011;51486;50.232;19.208;2023-03-01T02:23:33;90.63;;;34.20;;
64957;SDS011;51486;50.232;19.208;2023-03-01T02:26:53;103.23;;;35.77;;
64957;SDS011;51486;50.232;19.208;2023-03-01T02:29:33;113.13;;;36.50;;
64957;SDS011;51486;50.232;19.208;2023-03-01T02:32:19;106.53;;;36.00;;
64957;SDS011;51486;50.232;19.208;2023-03-01T02:35:12;94.27;;;36.43;;
64957;SDS011;51486;50.232;19.208;2023-03-01T02:38:00;107.47;;;35.90;;
64957;SDS011;51486;50.232;19.208;2023-03-01T02:40:46;97.57;;;36.20;;
64957;SDS011;51486;50.232;19.208;2023-03-01T02:43:35;101.20;;;37.83;;
64957;SDS011;51486;50.232;19.208;2023-03-01T02:46:22;86.17;;;35.10;;
64957;SDS011;51486;50.232;19.208;2023-03-01T02:49:20;98.77;;;36.57;;
64957;SDS011;51486;50.232;19.208;2023-03-01T02:55:31;89.73;;;34.03;;
64957;SDS011;51486;50.232;19.208;2023-03-01T02:58:16;102.00;;;35.30;;
64957;SDS011;51486;50.232;19.208;2023-03-01T03:01:02;98.43;;;35.13;;
64957;SDS011;51486;50.232;19.208;2023-03-01T03:03:48;97.53;;;31.93;;
64957;SDS011;51486;50.232;19.208;2023-03-01T03:06:34;94.50;;;34.37;;
64957;SDS011;51486;50.232;19.208;2023-03-01T03:09:20;92.17;;;32.43;;
64957;SDS011;51486;50.232;19.208;2023-03-01T03:12:05;73.20;;;29.30;;
64957;SDS011;51486;50.232;19.208;2023-03-01T03:14:51;77.47;;;30.80;;
64957;SDS011;51486;50.232;19.208;2023-03-01T03:17:37;74.00;;;28.57;;
64957;SDS011;51486;50.232;19.208;2023-03-01T03:20:25;90.70;;;29.40;;
64957;SDS011;51486;50.232;19.208;2023-03-01T03:23:12;84.53;;;28.67;;
64957;SDS011;51486;50.232;19.208;2023-03-01T03:25:58;76.67;;;28.10;;
64957;SDS011;51486;50.232;19.208;2023-03-01T03:28:44;84.70;;;31.23;;
64957;SDS011;51486;50.232;19.208;2023-03-01T03:31:30;77.07;;;29.63;;
64957;SDS011;51486;50.232;19.208;2023-03-01T03:34:15;72.07;;;29.23;;
64957;SDS011;51486;50.232;19.208;2023-03-01T03:37:03;80.73;;;31.10;;
64957;SDS011;51486;50.232;19.208;2023-03-01T03:39:48;96.47;;;30.40;;
64957;SDS011;51486;50.232;19.208;2023-03-01T03:42:34;79.03;;;30.87;;
64957;SDS011;51486;50.232;19.208;2023-03-01T03:45:20;84.50;;;30.00;;
64957;SDS011;51486;50.232;19.208;2023-03-01T03:48:06;70.27;;;27.63;;
64957;SDS011;51486;50.232;19.208;2023-03-01T03:50:55;74.33;;;28.03;;
64957;SDS011;51486;50.232;19.208;2023-03-01T03:53:41;71.23;;;29.17;;
64957;SDS011;51486;50.232;19.208;2023-03-01T03:56:27;73.40;;;28.67;;
64957;SDS011;51486;50.232;19.208;2023-03-01T03:59:13;89.23;;;29.97;;
64957;SDS011;51486;50.232;19.208;2023-03-01T04:01:59;76.87;;;30.33;;
64957;SDS011;51486;50.232;19.208;2023-03-01T04:04:45;80.27;;;30.60;;
64957;SDS011;51486;50.232;19.208;2023-03-01T04:07:31;78.10;;;32.23;;
64957;SDS011;51486;50.232;19.208;2023-03-01T04:10:17;94.93;;;33.30;;
64957;SDS011;51486;50.232;19.208;2023-03-01T04:13:03;71.83;;;28.83;;
64957;SDS011;51486;50.232;19.208;2023-03-01T04:15:53;83.77;;;30.27;;
64957;SDS011;51486;50.232;19.208;2023-03-01T04:18:40;78.60;;;28.87;;
64957;SDS011;51486;50.232;19.208;2023-03-01T04:21:25;89.37;;;30.20;;
64957;SDS011;51486;50.232;19.208;2023-03-01T04:24:11;77.03;;;29.87;;
64957;SDS011;51486;50.232;19.208;2023-03-01T04:26:57;80.40;;;30.23;;
64957;SDS011;51486;50.232;19.208;2023-03-01T04:29:43;86.17;;;31.97;;
64957;SDS011;51486;50.232;19.208;2023-03-01T04:32:29;70.73;;;28.03;;
64957;SDS011;51486;50.232;19.208;2023-03-01T04:35:14;85.70;;;32.77;;
64957;SDS011;51486;50.232;19.208;2023-03-01T04:38:00;88.57;;;29.63;;
64957;SDS011;51486;50.232;19.208;2023-03-01T04:40:46;73.90;;;28.90;;
64957;SDS011;51486;50.232;19.208;2023-03-01T04:43:33;85.33;;;31.17;;
64957;SDS011;51486;50.232;19.208;2023-03-01T04:46:20;84.73;;;30.13;;
64957;SDS011;51486;50.232;19.208;2023-03-01T04:49:06;76.77;;;29.90;;
64957;SDS011;51486;50.232;19.208;2023-03-01T04:51:52;90.47;;;31.60;;
64957;SDS011;51486;50.232;19.208;2023-03-01T04:54:37;81.10;;;30.33;;
64957;SDS011;51486;50.232;19.208;2023-03-01T04:57:23;88.67;;;29.57;;
64957;SDS011;51486;50.232;19.208;2023-03-01T05:00:12;80.20;;;29.50;;
64957;SDS011;51486;50.232;19.208;2023-03-01T05:03:05;86.53;;;32.60;;
64957;SDS011;51486;50.232;19.208;2023-03-01T05:05:51;73.70;;;29.50;;
64957;SDS011;51486;50.232;19.208;2023-03-01T05:08:38;79.43;;;31.00;;
64957;SDS011;51486;50.232;19.208;2023-03-01T05:11:24;82.10;;;30.47;;
64957;SDS011;51486;50.232;19.208;2023-03-01T05:14:10;87.87;;;30.77;;
64957;SDS011;51486;50.232;19.208;2023-03-01T05:16:56;71.53;;;28.97;;
64957;SDS011;51486;50.232;19.208;2023-03-01T05:19:49;93.87;;;32.33;;
64957;SDS011;51486;50.232;19.208;2023-03-01T05:22:35;89.17;;;31.47;;
64957;SDS011;51486;50.232;19.208;2023-03-01T05:25:22;90.70;;;30.40;;
64957;SDS011;51486;50.232;19.208;2023-03-01T05:28:10;82.73;;;29.23;;
64957;SDS011;51486;50.232;19.208;2023-03-01T05:30:57;71.50;;;30.27;;
64957;SDS011;51486;50.232;19.208;2023-03-01T05:33:43;82.73;;;30.70;;
64957;SDS011;51486;50.232;19.208;2023-03-01T05:36:28;84.57;;;32.53;;
64957;SDS011;51486;50.232;19.208;2023-03-01T05:39:14;83.87;;;31.03;;
64957;SDS011;51486;50.232;19.208;2023-03-01T05:42:00;88.07;;;31.33;;
64957;SDS011;51486;50.232;19.208;2023-03-01T05:44:46;86.50;;;32.10;;
64957;SDS011;51486;50.232;19.208;2023-03-01T05:47:32;83.10;;;30.17;;
64957;SDS011;51486;50.232;19.208;2023-03-01T05:50:19;86.57;;;31.47;;
64957;SDS011;51486;50.232;19.208;2023-03-01T05:53:11;69.47;;;28.17;;
64957;SDS011;51486;50.232;19.208;2023-03-01T05:55:58;80.33;;;28.93;;
64957;SDS011;51486;50.232;19.208;2023-03-01T05:58:44;78.33;;;28.63;;
64957;SDS011;51486;50.232;19.208;2023-03-01T06:01:30;98.97;;;30.30;;
64957;SDS011;51486;50.232;19.208;2023-03-01T06:04:16;78.53;;;29.37;;
64957;SDS011;51486;50.232;19.208;2023-03-01T06:07:02;91.47;;;30.20;;
64957;SDS011;51486;50.232;19.208;2023-03-01T06:09:47;74.67;;;28.00;;
64957;SDS011;51486;50.232;19.208;2023-03-01T06:12:34;90.60;;;31.60;;
64957;SDS011;51486;50.232;19.208;2023-03-01T06:15:22;90.17;;;32.00;;
64957;SDS011;51486;50.232;19.208;2023-03-01T06:18:08;81.30;;;30.17;;
64957;SDS011;51486;50.232;19.208;2023-03-01T06:20:54;79.23;;;29.30;;
64957;SDS011;51486;50.232;19.208;2023-03-01T06:23:41;74.93;;;28.10;;
64957;SDS011;51486;50.232;19.208;2023-03-01T06:26:26;74.83;;;29.80;;
64957;SDS011;51486;50.232;19.208;2023-03-01T06:29:12;73.47;;;28.53;;
64957;SDS011;51486;50.232;19.208;2023-03-01T06:31:58;77.87;;;27.57;;
64957;SDS011;51486;50.232;19.208;2023-03-01T06:34:43;75.77;;;28.03;;
64957;SDS011;51486;50.232;19.208;2023-03-01T06:37:29;86.73;;;29.43;;
64957;SDS011;51486;50.232;19.208;2023-03-01T06:40:15;83.10;;;29.50;;
64957;SDS011;51486;50.232;19.208;2023-03-01T06:43:01;73.67;;;28.83;;
64957;SDS011;51486;50.232;19.208;2023-03-01T06:45:47;81.70;;;28.47;;
64957;SDS011;51486;50.232;19.208;2023-03-01T06:48:33;74.17;;;28.37;;
64957;SDS011;51486;50.232;19.208;2023-03-01T06:51:19;90.40;;;31.10;;
64957;SDS011;51486;50.232;19.208;2023-03-01T06:54:05;90.87;;;29.83;;
64957;SDS011;51486;50.232;19.208;2023-03-01T06:56:50;70.67;;;28.03;;
64957;SDS011;51486;50.232;19.208;2023-03-01T06:59:36;60.83;;;26.20;;
64957;SDS011;51486;50.232;19.208;2023-03-01T07:02:22;78.03;;;27.53;;
64957;SDS011;51486;50.232;19.208;2023-03-01T07:05:08;75.67;;;27.47;;
64957;SDS011;51486;50.232;19.208;2023-03-01T07:07:53;62.30;;;25.10;;
64957;SDS011;51486;50.232;19.208;2023-03-01T07:10:40;69.20;;;27.87;;
64957;SDS011;51486;50.232;19.208;2023-03-01T07:13:26;76.07;;;29.43;;
64957;SDS011;51486;50.232;19.208;2023-03-01T07:16:11;80.87;;;27.77;;
64957;SDS011;51486;50.232;19.208;2023-03-01T07:18:57;88.83;;;30.67;;
64957;SDS011;51486;50.232;19.208;2023-03-01T07:21:44;86.70;;;30.37;;
64957;SDS011;51486;50.232;19.208;2023-03-01T07:24:29;80.80;;;29.87;;
64957;SDS011;51486;50.232;19.208;2023-03-01T07:27:15;94.50;;;34.40;;
64957;SDS011;51486;50.232;19.208;2023-03-01T07:30:01;90.73;;;33.10;;
64957;SDS011;51486;50.232;19.208;2023-03-01T07:32:47;82.37;;;30.57;;
64957;SDS011;51486;50.232;19.208;2023-03-01T07:35:33;89.50;;;31.43;;
64957;SDS011;51486;50.232;19.208;2023-03-01T07:38:18;62.43;;;26.13;;
64957;SDS011;51486;50.232;19.208;2023-03-01T07:41:04;68.27;;;26.93;;
64957;SDS011;51486;50.232;19.208;2023-03-01T07:43:51;63.77;;;26.53;;
64957;SDS011;51486;50.232;19.208;2023-03-01T07:46:36;56.13;;;22.40;;
64957;SDS011;51486;50.232;19.208;2023-03-01T07:49:22;54.93;;;22.93;;
64957;SDS011;51486;50.232;19.208;2023-03-01T07:52:11;58.03;;;22.60;;
64957;SDS011;51486;50.232;19.208;2023-03-01T07:54:57;43.77;;;18.60;;
64957;SDS011;51486;50.232;19.208;2023-03-01T07:57:43;39.60;;;17.40;;
64957;SDS011;51486;50.232;19.208;2023-03-01T08:00:29;48.83;;;18.30;;
64957;SDS011;51486;50.232;19.208;2023-03-01T08:03:14;47.43;;;18.30;;
64957;SDS011;51486;50.232;19.208;2023-03-01T08:06:01;44.63;;;17.23;;
64957;SDS011;51486;50.232;19.208;2023-03-01T08:08:47;45.13;;;16.17;;
64957;SDS011;51486;50.232;19.208;2023-03-01T08:11:33;30.73;;;13.37;;
64957;SDS011;51486;50.232;19.208;2023-03-01T08:14:19;38.37;;;14.07;;
64957;SDS011;51486;50.232;19.208;2023-03-01T08:17:04;30.17;;;14.17;;
64957;SDS011;51486;50.232;19.208;2023-03-01T08:19:50;34.30;;;14.17;;
64957;SDS011;51486;50.232;19.208;2023-03-01T08:22:36;34.40;;;14.27;;
64957;SDS011;51486;50.232;19.208;2023-03-01T08:25:21;35.90;;;14.63;;
64957;SDS011;51486;50.232;19.208;2023-03-01T08:28:07;34.07;;;14.03;;
64957;SDS011;51486;50.232;19.208;2023-03-01T08:30:53;45.37;;;15.63;;
64957;SDS011;51486;50.232;19.208;2023-03-01T08:33:38;35.07;;;14.07;;
64957;SDS011;51486;50.232;19.208;2023-03-01T08:36:25;36.47;;;15.87;;
64957;SDS011;51486;50.232;19.208;2023-03-01T08:39:13;37.47;;;13.97;;
64957;SDS011;51486;50.232;19.208;2023-03-01T08:42:00;31.00;;;12.77;;
64957;SDS011;51486;50.232;19.208;2023-03-01T08:44:46;29.47;;;13.20;;
64957;SDS011;51486;50.232;19.208;2023-03-01T08:47:32;31.57;;;13.13;;
64957;SDS011;51486;50.232;19.208;2023-03-01T08:50:18;39.37;;;14.70;;
64957;SDS011;51486;50.232;19.208;2023-03-01T08:53:04;32.50;;;12.67;;
64957;SDS011;51486;50.232;19.208;2023-03-01T08:55:50;30.63;;;11.13;;
64957;SDS011;51486;50.232;19.208;2023-03-01T08:58:36;19.27;;;9.20;;
64957;SDS011;51486;50.232;19.208;2023-03-01T09:01:23;19.60;;;9.33;;
64957;SDS011;51486;50.232;19.208;2023-03-01T09:04:09;21.50;;;10.40;;
64957;SDS011;51486;50.232;19.208;2023-03-01T09:06:55;18.97;;;8.07;;
64957;SDS011;51486;50.232;19.208;2023-03-01T09:09:41;14.63;;;7.17;;
64957;SDS011;51486;50.232;19.208;2023-03-01T09:12:27;21.63;;;7.53;;
64957;SDS011;51486;50.232;19.208;2023-03-01T09:15:13;13.23;;;6.47;;
64957;SDS011;51486;50.232;19.208;2023-03-01T09:17:59;27.00;;;10.77;;
64957;SDS011;51486;50.232;19.208;2023-03-01T09:20:45;28.87;;;11.60;;
64957;SDS011;51486;50.232;19.208;2023-03-01T09:23:31;23.53;;;9.93;;
64957;SDS011;51486;50.232;19.208;2023-03-01T09:26:20;19.23;;;9.00;;
64957;SDS011;51486;50.232;19.208;2023-03-01T09:29:07;19.13;;;8.70;;
64957;SDS011;51486;50.232;19.208;2023-03-01T09:31:54;14.27;;;5.80;;
64957;SDS011;51486;50.232;19.208;2023-03-01T09:34:40;13.83;;;5.10;;
64957;SDS011;51486;50.232;19.208;2023-03-01T09:37:44;11.73;;;5.33;;
64957;SDS011;51486;50.232;19.208;2023-03-01T09:40:30;17.83;;;6.67;;
64957;SDS011;51486;50.232;19.208;2023-03-01T09:43:34;19.77;;;6.53;;
64957;SDS011;51486;50.232;19.208;2023-03-01T09:46:23;20.77;;;7.57;;
64957;SDS011;51486;50.232;19.208;2023-03-01T09:49:29;18.10;;;8.20;;
64957;SDS011;51486;50.232;19.208;2023-03-01T09:52:40;18.03;;;8.73;;
64957;SDS011;51486;50.232;19.208;2023-03-01T09:55:32;15.00;;;8.40;;
64957;SDS011;51486;50.232;19.208;2023-03-01T09:58:34;20.47;;;8.33;;
64957;SDS011;51486;50.232;19.208;2023-03-01T10:01:28;19.27;;;9.47;;
64957;SDS011;51486;50.232;19.208;2023-03-01T10:10:37;27.60;;;9.37;;
64957;SDS011;51486;50.232;19.208;2023-03-01T10:13:29;23.03;;;10.13;;
64957;SDS011;51486;50.232;19.208;2023-03-01T10:16:21;40.23;;;11.73;;
64957;SDS011;51486;50.232;19.208;2023-03-01T10:19:32;25.67;;;11.73;;
64957;SDS011;51486;50.232;19.208;2023-03-01T10:22:27;30.90;;;11.47;;
64957;SDS011;51486;50.232;19.208;2023-03-01T10:25:14;26.70;;;11.10;;
64957;SDS011;51486;50.232;19.208;2023-03-01T10:28:06;26.50;;;11.23;;
64957;SDS011;51486;50.232;19.208;2023-03-01T10:31:01;23.10;;;11.37;;
64957;SDS011;51486;50.232;19.208;2023-03-01T10:33:49;28.43;;;11.30;;
64957;SDS011;51486;50.232;19.208;2023-03-01T10:36:40;29.93;;;12.03;;
64957;SDS011;51486;50.232;19.208;2023-03-01T10:39:27;26.87;;;12.77;;
64957;SDS011;51486;50.232;19.208;2023-03-01T10:42:19;35.70;;;14.60;;
64957;SDS011;51486;50.232;19.208;2023-03-01T10:48:20;33.23;;;13.03;;
64957;SDS011;51486;50.232;19.208;2023-03-01T10:51:12;40.80;;;13.23;;
64957;SDS011;51486;50.232;19.208;2023-03-01T10:54:03;27.47;;;12.23;;
64957;SDS011;51486;50.232;19.208;2023-03-01T10:56:51;27.57;;;13.70;;
64957;SDS011;51486;50.232;19.208;2023-03-01T10:59:39;37.40;;;12.70;;
64957;SDS011;51486;50.232;19.208;2023-03-01T11:02:28;28.47;;;11.53;;
64957;SDS011;51486;50.232;19.208;2023-03-01T11:05:22;32.47;;;14.17;;
64957;SDS011;51486;50.232;19.208;2023-03-01T11:08:09;35.10;;;13.63;;
64957;SDS011;51486;50.232;19.208;2023-03-01T11:14:17;35.27;;;11.70;;
64957;SDS011;51486;50.232;19.208;2023-03-01T11:17:11;20.47;;;10.60;;
64957;SDS011;51486;50.232;19.208;2023-03-01T11:20:25;24.87;;;11.43;;
64957;SDS011;51486;50.232;19.208;2023-03-01T11:23:12;37.60;;;12.23;;
64957;SDS011;51486;50.232;19.208;2023-03-01T11:26:00;37.97;;;12.77;;
64957;SDS011;51486;50.232;19.208;2023-03-01T11:28:50;24.37;;;10.57;;
64957;SDS011;51486;50.232;19.208;2023-03-01T11:31:40;23.33;;;10.70;;
64957;SDS011;51486;50.232;19.208;2023-03-01T11:37:41;22.80;;;10.00;;
64957;SDS011;51486;50.232;19.208;2023-03-01T11:40:41;17.30;;;8.40;;
64957;SDS011;51486;50.232;19.208;2023-03-01T11:46:43;15.87;;;7.00;;
64957;SDS011;51486;50.232;19.208;2023-03-01T11:52:48;18.87;;;6.87;;
64957;SDS011;51486;50.232;19.208;2023-03-01T11:55:49;15.90;;;7.67;;
64957;SDS011;51486;50.232;19.208;2023-03-01T11:59:01;30.07;;;8.50;;
64957;SDS011;51486;50.232;19.208;2023-03-01T12:02:16;20.97;;;7.67;;
64957;SDS011;51486;50.232;19.208;2023-03-01T12:05:33;13.33;;;7.20;;
64957;SDS011;51486;50.232;19.208;2023-03-01T12:17:28;14.23;;;6.40;;
64957;SDS011;51486;50.232;19.208;2023-03-01T12:29:02;17.60;;;7.20;;
64957;SDS011;51486;50.232;19.208;2023-03-01T12:32:08;21.30;;;7.53;;
64957;SDS011;51486;50.232;19.208;2023-03-01T12:50:51;15.70;;;7.83;;
64957;SDS011;51486;50.232;19.208;2023-03-01T12:53:42;14.60;;;6.57;;
64957;SDS011;51486;50.232;19.208;2023-03-01T12:56:31;13.43;;;6.40;;
64957;SDS011;51486;50.232;19.208;2023-03-01T12:59:27;13.10;;;6.73;;
64957;SDS011;51486;50.232;19.208;2023-03-01T13:02:58;10.57;;;6.17;;
64957;SDS011;51486;50.232;19.208;2023-03-01T13:05:40;16.47;;;6.40;;
64957;SDS011;51486;50.232;19.208;2023-03-01T13:08:41;12.87;;;6.33;;
64957;SDS011;51486;50.232;19.208;2023-03-01T13:11:31;15.23;;;6.83;;
64957;SDS011;51486;50.232;19.208;2023-03-01T13:17:28;13.70;;;5.83;;
64957;SDS011;51486;50.232;19.208;2023-03-01T13:20:19;18.57;;;7.00;;
64957;SDS011;51486;50.232;19.208;2023-03-01T13:28:54;12.03;;;5.90;;
64957;SDS011;51486;50.232;19.208;2023-03-01T13:34:40;14.17;;;6.10;;
64957;SDS011;51486;50.232;19.208;2023-03-01T13:37:29;12.33;;;5.63;;
64957;SDS011;51486;50.232;19.208;2023-03-01T13:43:28;13.17;;;6.07;;
64957;SDS011;51486;50.232;19.208;2023-03-01T13:46:22;13.20;;;4.67;;
64957;SDS011;51486;50.232;19.208;2023-03-01T13:49:11;20.03;;;5.27;;
64957;SDS011;51486;50.232;19.208;2023-03-01T13:52:01;15.63;;;5.00;;
64957;SDS011;51486;50.232;19.208;2023-03-01T13:54:47;7.57;;;4.10;;
64957;SDS011;51486;50.232;19.208;2023-03-01T13:57:33;15.73;;;5.00;;
64957;SDS011;51486;50.232;19.208;2023-03-01T14:00:37;11.67;;;5.57;;
64957;SDS011;51486;50.232;19.208;2023-03-01T14:03:24;7.17;;;4.03;;
64957;SDS011;51486;50.232;19.208;2023-03-01T14:06:17;9.40;;;4.83;;
64957;SDS011;51486;50.232;19.208;2023-03-01T14:09:15;22.40;;;6.57;;
64957;SDS011;51486;50.232;19.208;2023-03-01T14:21:12;10.63;;;5.07;;
64957;SDS011;51486;50.232;19.208;2023-03-01T14:23:59;9.23;;;5.03;;
64957;SDS011;51486;50.232;19.208;2023-03-01T14:26:46;9.10;;;4.37;;
64957;SDS011;51486;50.232;19.208;2023-03-01T14:29:36;8.00;;;4.03;;
64957;SDS011;51486;50.232;19.208;2023-03-01T14:32:29;10.27;;;4.80;;
64957;SDS011;51486;50.232;19.208;2023-03-01T14:35:21;11.73;;;5.57;;
64957;SDS011;51486;50.232;19.208;2023-03-01T14:38:19;9.17;;;4.33;;
64957;SDS011;51486;50.232;19.208;2023-03-01T14:41:11;8.27;;;3.90;;
64957;SDS011;51486;50.232;19.208;2023-03-01T14:44:05;10.50;;;3.97;;
64957;SDS011;51486;50.232;19.208;2023-03-01T14:46:56;12.43;;;4.23;;
64957;SDS011;51486;50.232;19.208;2023-03-01T14:49:42;7.37;;;3.77;;
64957;SDS011;51486;50.232;19.208;2023-03-01T14:52:39;15.10;;;4.33;;
64957;SDS011;51486;50.232;19.208;2023-03-01T14:55:31;8.67;;;4.03;;
64957;SDS011;51486;50.232;19.208;2023-03-01T14:58:21;9.27;;;4.43;;
64957;SDS011;51486;50.232;19.208;2023-03-01T15:01:10;12.63;;;4.57;;
64957;SDS011;51486;50.232;19.208;2023-03-01T15:03:59;7.67;;;3.83;;
64957;SDS011;51486;50.232;19.208;2023-03-01T15:06:47;10.60;;;4.10;;
64957;SDS011;51486;50.232;19.208;2023-03-01T15:09:36;12.43;;;4.50;;
64957;SDS011;51486;50.232;19.208;2023-03-01T15:15:34;6.03;;;3.30;;
64957;SDS011;51486;50.232;19.208;2023-03-01T15:18:22;5.70;;;3.40;;
64957;SDS011;51486;50.232;19.208;2023-03-01T15:21:16;5.33;;;2.97;;
64957;SDS011;51486;50.232;19.208;2023-03-01T15:24:15;6.03;;;3.47;;
64957;SDS011;51486;50.232;19.208;2023-03-01T15:27:05;14.07;;;4.03;;
64957;SDS011;51486;50.232;19.208;2023-03-01T15:30:00;4.30;;;3.20;;
64957;SDS011;51486;50.232;19.208;2023-03-01T15:32:47;6.43;;;3.97;;
64957;SDS011;51486;50.232;19.208;2023-03-01T15:35:39;9.63;;;4.60;;
64957;SDS011;51486;50.232;19.208;2023-03-01T15:38:32;10.77;;;4.73;;
64957;SDS011;51486;50.232;19.208;2023-03-01T15:41:47;9.33;;;3.50;;
64957;SDS011;51486;50.232;19.208;2023-03-01T15:44:34;10.63;;;4.67;;
64957;SDS011;51486;50.232;19.208;2023-03-01T15:47:29;12.00;;;5.97;;
64957;SDS011;51486;50.232;19.208;2023-03-01T15:53:10;15.60;;;5.10;;
64957;SDS011;51486;50.232;19.208;2023-03-01T15:55:59;10.73;;;5.10;;
64957;SDS011;51486;50.232;19.208;2023-03-01T15:58:47;11.67;;;4.63;;
64957;SDS011;51486;50.232;19.208;2023-03-01T16:01:33;20.33;;;7.40;;
64957;SDS011;51486;50.232;19.208;2023-03-01T16:04:20;19.13;;;7.20;;
64957;SDS011;51486;50.232;19.208;2023-03-01T16:07:08;22.20;;;7.60;;
64957;SDS011;51486;50.232;19.208;2023-03-01T16:09:55;13.63;;;6.87;;
64957;SDS011;51486;50.232;19.208;2023-03-01T16:12:40;13.57;;;6.63;;
64957;SDS011;51486;50.232;19.208;2023-03-01T16:15:30;14.73;;;6.57;;
64957;SDS011;51486;50.232;19.208;2023-03-01T16:18:19;14.07;;;5.77;;
64957;SDS011;51486;50.232;19.208;2023-03-01T16:21:05;19.63;;;8.27;;
64957;SDS011;51486;50.232;19.208;2023-03-01T16:23:51;131.67;;;42.07;;
64957;SDS011;51486;50.232;19.208;2023-03-01T16:26:39;159.83;;;46.80;;
64957;SDS011;51486;50.232;19.208;2023-03-01T16:29:25;86.13;;;27.13;;
64957;SDS011;51486;50.232;19.208;2023-03-01T16:32:11;73.97;;;26.23;;
64957;SDS011;51486;50.232;19.208;2023-03-01T16:34:58;69.83;;;24.37;;
64957;SDS011;51486;50.232;19.208;2023-03-01T16:37:44;66.23;;;22.80;;
64957;SDS011;51486;50.232;19.208;2023-03-01T16:40:30;130.57;;;35.90;;
64957;SDS011;51486;50.232;19.208;2023-03-01T16:43:16;133.63;;;36.07;;
64957;SDS011;51486;50.232;19.208;2023-03-01T16:46:04;116.17;;;34.43;;
64957;SDS011;51486;50.232;19.208;2023-03-01T16:48:55;166.53;;;48.67;;
64957;SDS011;51486;50.232;19.208;2023-03-01T16:51:41;185.20;;;53.57;;
64957;SDS011;51486;50.232;19.208;2023-03-01T16:54:27;118.57;;;38.67;;
64957;SDS011;51486;50.232;19.208;2023-03-01T16:57:13;72.83;;;26.33;;
64957;SDS011;51486;50.232;19.208;2023-03-01T16:59:59;55.40;;;22.23;;
64957;SDS011;51486;50.232;19.208;2023-03-01T17:02:45;44.60;;;17.23;;
64957;SDS011;51486;50.232;19.208;2023-03-01T17:05:30;38.57;;;14.70;;
64957;SDS011;51486;50.232;19.208;2023-03-01T17:08:16;32.47;;;11.00;;
64957;SDS011;51486;50.232;19.208;2023-03-01T17:11:03;41.33;;;9.47;;
64957;SDS011;51486;50.232;19.208;2023-03-01T17:13:52;40.40;;;9.97;;
64957;SDS011;51486;50.232;19.208;2023-03-01T17:16:38;24.47;;;9.63;;
64957;SDS011;51486;50.232;19.208;2023-03-01T17:19:24;35.33;;;11.03;;
64957;SDS011;51486;50.232;19.208;2023-03-01T17:22:10;29.37;;;11.43;;
64957;SDS011;51486;50.232;19.208;2023-03-01T17:24:58;29.90;;;12.23;;
64957;SDS011;51486;50.232;19.208;2023-03-01T17:27:44;40.90;;;13.80;;
64957;SDS011;51486;50.232;19.208;2023-03-01T17:30:30;53.27;;;17.40;;
64957;SDS011;51486;50.232;19.208;2023-03-01T17:33:16;90.20;;;28.70;;
64957;SDS011;51486;50.232;19.208;2023-03-01T17:36:03;90.73;;;29.83;;
64957;SDS011;51486;50.232;19.208;2023-03-01T17:38:49;70.13;;;25.70;;
64957;SDS011;51486;50.232;19.208;2023-03-01T17:41:36;48.17;;;18.90;;
64957;SDS011;51486;50.232;19.208;2023-03-01T17:44:22;41.50;;;15.10;;
64957;SDS011;51486;50.232;19.208;2023-03-01T17:47:08;34.17;;;12.93;;
64957;SDS011;51486;50.232;19.208;2023-03-01T17:49:55;34.63;;;11.83;;